sensor_id;sensor_type;location;lat;lon;timestamp;temperature;humidity
51863;DHT22;37900;52.996;6.278;2024-03-02T00:02:11;15.20;83.70
51863;DHT22;37900;52.996;6.278;2024-03-02T00:04:36;15.20;83.70
51863;DHT22;37900;52.996;6.278;2024-03-02T00:07:02;15.20;83.70
51863;DHT22;37900;52.996;6.278;2024-03-02T00:09:29;15.20;83.70
51863;DHT22;37900;52.996;6.278;2024-03-02T00:11:54;15.20;83.70
51863;DHT22;37900;52.996;6.278;2024-03-02T00:14:20;15.20;83.10
51863;DHT22;37900;52.996;6.278;2024-03-02T00:16:46;15.20;83.60
51863;DHT22;37900;52.996;6.278;2024-03-02T00:19:12;15.20;83.70
51863;DHT22;37900;52.996;6.278;2024-03-02T00:21:37;15.10;83.00
51863;DHT22;37900;52.996;6.278;2024-03-02T00:24:08;15.20;83.60
51863;DHT22;37900;52.996;6.278;2024-03-02T00:26:44;15.20;83.50
51863;DHT22;37900;52.996;6.278;2024-03-02T00:29:09;15.20;83.60
51863;DHT22;37900;52.996;6.278;2024-03-02T00:31:39;15.20;83.60
51863;DHT22;37900;52.996;6.278;2024-03-02T00:34:05;15.20;83.10
51863;DHT22;37900;52.996;6.278;2024-03-02T00:36:31;15.20;83.60
51863;DHT22;37900;52.996;6.278;2024-03-02T00:38:57;15.20;83.60
51863;DHT22;37900;52.996;6.278;2024-03-02T00:41:30;15.20;83.20
51863;DHT22;37900;52.996;6.278;2024-03-02T00:44:15;15.20;83.60
51863;DHT22;37900;52.996;6.278;2024-03-02T00:46:41;15.20;83.50
51863;DHT22;37900;52.996;6.278;2024-03-02T00:51:35;15.20;83.50
51863;DHT22;37900;52.996;6.278;2024-03-02T00:54:02;15.20;83.50
51863;DHT22;37900;52.996;6.278;2024-03-02T00:56:29;16.30;84.10
51863;DHT22;37900;52.996;6.278;2024-03-02T00:58:55;15.20;83.40
51863;DHT22;37900;52.996;6.278;2024-03-02T01:01:21;15.20;83.50
51863;DHT22;37900;52.996;6.278;2024-03-02T01:03:47;15.20;83.50
51863;DHT22;37900;52.996;6.278;2024-03-02T01:06:12;15.20;83.00
51863;DHT22;37900;52.996;6.278;2024-03-02T01:08:38;15.20;83.50
51863;DHT22;37900;52.996;6.278;2024-03-02T01:11:04;15.20;83.50
51863;DHT22;37900;52.996;6.278;2024-03-02T01:13:30;15.20;83.50
51863;DHT22;37900;52.996;6.278;2024-03-02T01:15:56;15.20;83.40
51863;DHT22;37900;52.996;6.278;2024-03-02T01:18:22;15.20;83.40
51863;DHT22;37900;52.996;6.278;2024-03-02T01:20:47;15.20;82.90
51863;DHT22;37900;52.996;6.278;2024-03-02T01:23:13;15.20;82.90
51863;DHT22;37900;52.996;6.278;2024-03-02T01:25:39;15.20;83.40
51863;DHT22;37900;52.996;6.278;2024-03-02T01:28:05;15.10;82.80
51863;DHT22;37900;52.996;6.278;2024-03-02T01:30:31;15.20;83.40
51863;DHT22;37900;52.996;6.278;2024-03-02T01:32:56;15.20;83.40
51863;DHT22;37900;52.996;6.278;2024-03-02T01:35:24;15.20;83.40
51863;DHT22;37900;52.996;6.278;2024-03-02T01:37:49;15.20;83.40
51863;DHT22;37900;52.996;6.278;2024-03-02T01:40:15;15.10;83.30
51863;DHT22;37900;52.996;6.278;2024-03-02T01:42:41;15.20;82.80
51863;DHT22;37900;52.996;6.278;2024-03-02T01:45:07;17.30;84.50
51863;DHT22;37900;52.996;6.278;2024-03-02T01:47:33;15.10;83.30
51863;DHT22;37900;52.996;6.278;2024-03-02T01:49:59;15.10;82.80
51863;DHT22;37900;52.996;6.278;2024-03-02T01:52:25;15.10;82.80
51863;DHT22;37900;52.996;6.278;2024-03-02T01:54:51;15.20;83.40
51863;DHT22;37900;52.996;6.278;2024-03-02T01:57:16;15.20;84.00
51863;DHT22;37900;52.996;6.278;2024-03-02T01:59:42;15.20;83.50
51863;DHT22;37900;52.996;6.278;2024-03-02T02:02:08;15.20;83.40
51863;DHT22;37900;52.996;6.278;2024-03-02T02:04:33;15.20;83.40
51863;DHT22;37900;52.996;6.278;2024-03-02T02:06:59;15.20;83.40
51863;DHT22;37900;52.996;6.278;2024-03-02T02:09:25;15.20;83.30
51863;DHT22;37900;52.996;6.278;2024-03-02T02:11:51;15.10;83.30
51863;DHT22;37900;52.996;6.278;2024-03-02T02:14:17;15.10;83.30
51863;DHT22;37900;52.996;6.278;2024-03-02T02:16:42;15.10;83.30
51863;DHT22;37900;52.996;6.278;2024-03-02T02:19:08;15.20;82.80
51863;DHT22;37900;52.996;6.278;2024-03-02T02:21:34;15.20;83.40
51863;DHT22;37900;52.996;6.278;2024-03-02T02:24:00;15.10;83.30
51863;DHT22;37900;52.996;6.278;2024-03-02T02:26:28;15.20;83.30
51863;DHT22;37900;52.996;6.278;2024-03-02T02:28:54;15.20;83.40
51863;DHT22;37900;52.996;6.278;2024-03-02T02:31:19;15.20;83.30
51863;DHT22;37900;52.996;6.278;2024-03-02T02:33:45;15.20;83.30
51863;DHT22;37900;52.996;6.278;2024-03-02T02:36:11;15.10;83.30
51863;DHT22;37900;52.996;6.278;2024-03-02T02:38:38;15.20;83.40
51863;DHT22;37900;52.996;6.278;2024-03-02T02:41:04;15.20;82.80
51863;DHT22;37900;52.996;6.278;2024-03-02T02:43:29;15.10;83.30
51863;DHT22;37900;52.996;6.278;2024-03-02T02:45:55;15.10;82.70
51863;DHT22;37900;52.996;6.278;2024-03-02T02:48:21;15.20;83.40
51863;DHT22;37900;52.996;6.278;2024-03-02T02:50:46;15.20;83.40
51863;DHT22;37900;52.996;6.278;2024-03-02T02:53:12;15.20;83.30
51863;DHT22;37900;52.996;6.278;2024-03-02T02:55:39;15.10;82.70
51863;DHT22;37900;52.996;6.278;2024-03-02T02:58:06;15.20;83.30
51863;DHT22;37900;52.996;6.278;2024-03-02T03:00:31;14.90;83.20
51863;DHT22;37900;52.996;6.278;2024-03-02T03:02:57;15.20;83.40
51863;DHT22;37900;52.996;6.278;2024-03-02T03:05:23;15.10;82.70
51863;DHT22;37900;52.996;6.278;2024-03-02T03:07:48;15.20;83.30
51863;DHT22;37900;52.996;6.278;2024-03-02T03:10:15;15.10;82.70
51863;DHT22;37900;52.996;6.278;2024-03-02T03:12:41;15.10;82.80
51863;DHT22;37900;52.996;6.278;2024-03-02T03:15:08;15.20;82.80
51863;DHT22;37900;52.996;6.278;2024-03-02T03:17:34;15.10;82.70
51863;DHT22;37900;52.996;6.278;2024-03-02T03:20:00;15.20;83.40
51863;DHT22;37900;52.996;6.278;2024-03-02T03:22:26;15.20;83.30
51863;DHT22;37900;52.996;6.278;2024-03-02T03:24:52;14.80;83.10
51863;DHT22;37900;52.996;6.278;2024-03-02T03:27:18;15.10;83.30
51863;DHT22;37900;52.996;6.278;2024-03-02T03:29:45;15.10;83.30
51863;DHT22;37900;52.996;6.278;2024-03-02T03:32:11;15.10;83.30
51863;DHT22;37900;52.996;6.278;2024-03-02T03:34:36;15.10;83.30
51863;DHT22;37900;52.996;6.278;2024-03-02T03:37:02;15.10;83.30
51863;DHT22;37900;52.996;6.278;2024-03-02T03:39:28;15.20;83.30
51863;DHT22;37900;52.996;6.278;2024-03-02T03:41:54;15.10;83.30
51863;DHT22;37900;52.996;6.278;2024-03-02T03:44:19;15.10;83.20
51863;DHT22;37900;52.996;6.278;2024-03-02T03:46:45;15.10;83.30
51863;DHT22;37900;52.996;6.278;2024-03-02T03:49:11;11.50;80.80
51863;DHT22;37900;52.996;6.278;2024-03-02T03:51:36;15.10;82.70
51863;DHT22;37900;52.996;6.278;2024-03-02T03:54:02;15.10;83.30
51863;DHT22;37900;52.996;6.278;2024-03-02T03:56:27;15.70;83.60
51863;DHT22;37900;52.996;6.278;2024-03-02T03:58:53;15.10;82.70
51863;DHT22;37900;52.996;6.278;2024-03-02T04:01:19;15.10;83.30
51863;DHT22;37900;52.996;6.278;2024-03-02T04:03:44;15.10;83.30
51863;DHT22;37900;52.996;6.278;2024-03-02T04:06:10;15.10;82.70
51863;DHT22;37900;52.996;6.278;2024-03-02T04:08:36;15.30;83.40
51863;DHT22;37900;52.996;6.278;2024-03-02T04:11:01;15.10;83.30
51863;DHT22;37900;52.996;6.278;2024-03-02T04:13:28;15.20;82.80
51863;DHT22;37900;52.996;6.278;2024-03-02T04:15:53;15.10;83.30
51863;DHT22;37900;52.996;6.278;2024-03-02T04:18:19;15.10;82.80
51863;DHT22;37900;52.996;6.278;2024-03-02T04:20:45;15.20;82.80
51863;DHT22;37900;52.996;6.278;2024-03-02T04:23:10;15.10;82.70
51863;DHT22;37900;52.996;6.278;2024-03-02T04:25:36;15.10;82.80
51863;DHT22;37900;52.996;6.278;2024-03-02T04:28:01;15.10;82.70
51863;DHT22;37900;52.996;6.278;2024-03-02T04:30:27;15.10;83.30
51863;DHT22;37900;52.996;6.278;2024-03-02T04:32:53;15.10;82.80
51863;DHT22;37900;52.996;6.278;2024-03-02T04:35:19;15.20;83.40
51863;DHT22;37900;52.996;6.278;2024-03-02T04:37:44;15.10;83.20
51863;DHT22;37900;52.996;6.278;2024-03-02T04:40:10;15.10;83.30
51863;DHT22;37900;52.996;6.278;2024-03-02T04:42:36;15.10;83.90
51863;DHT22;37900;52.996;6.278;2024-03-02T04:45:01;15.10;83.30
51863;DHT22;37900;52.996;6.278;2024-03-02T04:47:27;15.10;82.80
51863;DHT22;37900;52.996;6.278;2024-03-02T04:49:52;15.20;82.80
51863;DHT22;37900;52.996;6.278;2024-03-02T04:52:18;15.10;83.30
51863;DHT22;37900;52.996;6.278;2024-03-02T04:54:44;15.10;83.20
51863;DHT22;37900;52.996;6.278;2024-03-02T04:57:28;13.90;82.10
51863;DHT22;37900;52.996;6.278;2024-03-02T04:59:54;15.10;82.70
51863;DHT22;37900;52.996;6.278;2024-03-02T05:02:19;15.10;83.30
51863;DHT22;37900;52.996;6.278;2024-03-02T05:04:45;15.10;83.20
51863;DHT22;37900;52.996;6.278;2024-03-02T05:07:10;15.10;82.70
51863;DHT22;37900;52.996;6.278;2024-03-02T05:09:36;15.50;83.00
51863;DHT22;37900;52.996;6.278;2024-03-02T05:12:02;15.10;83.40
51863;DHT22;37900;52.996;6.278;2024-03-02T05:14:31;15.10;83.30
51863;DHT22;37900;52.996;6.278;2024-03-02T05:16:56;15.10;83.30
51863;DHT22;37900;52.996;6.278;2024-03-02T05:19:22;15.10;82.80
51863;DHT22;37900;52.996;6.278;2024-03-02T05:21:47;15.10;83.30
51863;DHT22;37900;52.996;6.278;2024-03-02T05:24:14;15.10;82.80
51863;DHT22;37900;52.996;6.278;2024-03-02T05:26:39;15.10;83.30
51863;DHT22;37900;52.996;6.278;2024-03-02T05:29:05;15.10;83.30
51863;DHT22;37900;52.996;6.278;2024-03-02T05:31:31;15.20;83.40
51863;DHT22;37900;52.996;6.278;2024-03-02T05:33:56;15.10;83.40
51863;DHT22;37900;52.996;6.278;2024-03-02T05:36:22;15.10;82.80
51863;DHT22;37900;52.996;6.278;2024-03-02T05:38:47;15.10;82.80
51863;DHT22;37900;52.996;6.278;2024-03-02T05:41:13;15.10;83.30
51863;DHT22;37900;52.996;6.278;2024-03-02T05:43:39;15.30;83.50
51863;DHT22;37900;52.996;6.278;2024-03-02T05:46:04;15.10;82.80
51863;DHT22;37900;52.996;6.278;2024-03-02T05:48:30;15.10;83.40
51863;DHT22;37900;52.996;6.278;2024-03-02T05:50:55;15.10;83.40
51863;DHT22;37900;52.996;6.278;2024-03-02T05:53:22;15.10;83.40
51863;DHT22;37900;52.996;6.278;2024-03-02T05:55:47;15.10;83.40
51863;DHT22;37900;52.996;6.278;2024-03-02T05:58:18;15.10;83.40
51863;DHT22;37900;52.996;6.278;2024-03-02T06:00:53;15.10;83.40
51863;DHT22;37900;52.996;6.278;2024-03-02T06:03:19;15.10;83.40
51863;DHT22;37900;52.996;6.278;2024-03-02T06:05:45;15.10;83.40
51863;DHT22;37900;52.996;6.278;2024-03-02T06:08:11;15.10;83.40
51863;DHT22;37900;52.996;6.278;2024-03-02T06:10:37;15.10;83.40
51863;DHT22;37900;52.996;6.278;2024-03-02T06:13:03;15.10;83.50
51863;DHT22;37900;52.996;6.278;2024-03-02T06:15:28;15.10;83.50
51863;DHT22;37900;52.996;6.278;2024-03-02T06:17:54;15.10;82.90
51863;DHT22;37900;52.996;6.278;2024-03-02T06:20:19;15.10;82.90
51863;DHT22;37900;52.996;6.278;2024-03-02T06:22:45;15.10;83.50
51863;DHT22;37900;52.996;6.278;2024-03-02T06:25:11;15.10;83.40
51863;DHT22;37900;52.996;6.278;2024-03-02T06:27:36;15.10;83.50
51863;DHT22;37900;52.996;6.278;2024-03-02T06:30:02;15.10;83.50
51863;DHT22;37900;52.996;6.278;2024-03-02T06:32:29;15.10;83.50
51863;DHT22;37900;52.996;6.278;2024-03-02T06:34:54;15.10;83.00
51863;DHT22;37900;52.996;6.278;2024-03-02T06:37:20;15.10;83.50
51863;DHT22;37900;52.996;6.278;2024-03-02T06:39:46;15.10;83.40
51863;DHT22;37900;52.996;6.278;2024-03-02T06:42:11;15.10;83.50
51863;DHT22;37900;52.996;6.278;2024-03-02T06:44:37;15.10;83.50
51863;DHT22;37900;52.996;6.278;2024-03-02T06:47:02;15.10;83.50
51863;DHT22;37900;52.996;6.278;2024-03-02T06:49:28;15.10;83.50
51863;DHT22;37900;52.996;6.278;2024-03-02T06:51:54;15.10;83.60
51863;DHT22;37900;52.996;6.278;2024-03-02T06:54:19;15.10;83.50
51863;DHT22;37900;52.996;6.278;2024-03-02T06:56:45;15.10;83.50
51863;DHT22;37900;52.996;6.278;2024-03-02T06:59:10;15.10;83.00
51863;DHT22;37900;52.996;6.278;2024-03-02T07:01:36;15.10;83.60
51863;DHT22;37900;52.996;6.278;2024-03-02T07:04:02;15.10;83.00
51863;DHT22;37900;52.996;6.278;2024-03-02T07:06:27;15.10;83.60
51863;DHT22;37900;52.996;6.278;2024-03-02T07:08:53;15.10;83.60
51863;DHT22;37900;52.996;6.278;2024-03-02T07:11:19;15.10;83.70
51863;DHT22;37900;52.996;6.278;2024-03-02T07:13:45;15.10;83.60
51863;DHT22;37900;52.996;6.278;2024-03-02T07:16:10;15.10;83.00
51863;DHT22;37900;52.996;6.278;2024-03-02T07:18:36;15.20;83.60
51863;DHT22;37900;52.996;6.278;2024-03-02T07:21:10;15.10;83.60
51863;DHT22;37900;52.996;6.278;2024-03-02T07:23:36;15.20;83.60
51863;DHT22;37900;52.996;6.278;2024-03-02T07:26:02;15.20;83.60
51863;DHT22;37900;52.996;6.278;2024-03-02T07:28:28;15.20;83.70
51863;DHT22;37900;52.996;6.278;2024-03-02T07:31:00;15.10;83.10
51863;DHT22;37900;52.996;6.278;2024-03-02T07:33:26;15.20;83.60
51863;DHT22;37900;52.996;6.278;2024-03-02T07:35:52;15.10;83.10
51863;DHT22;37900;52.996;6.278;2024-03-02T07:38:18;15.20;83.20
51863;DHT22;37900;52.996;6.278;2024-03-02T07:40:43;15.20;83.80
51863;DHT22;37900;52.996;6.278;2024-03-02T07:43:09;15.20;83.80
51863;DHT22;37900;52.996;6.278;2024-03-02T07:45:35;15.20;83.20
51863;DHT22;37900;52.996;6.278;2024-03-02T07:48:03;15.20;83.80
51863;DHT22;37900;52.996;6.278;2024-03-02T07:50:32;15.20;83.80
51863;DHT22;37900;52.996;6.278;2024-03-02T07:53:00;15.20;83.90
51863;DHT22;37900;52.996;6.278;2024-03-02T07:55:26;15.20;84.50
51863;DHT22;37900;52.996;6.278;2024-03-02T07:57:52;15.30;84.10
51863;DHT22;37900;52.996;6.278;2024-03-02T08:00:17;15.30;83.70
51863;DHT22;37900;52.996;6.278;2024-03-02T08:02:43;15.20;83.60
51863;DHT22;37900;52.996;6.278;2024-03-02T08:05:09;15.30;84.20
51863;DHT22;37900;52.996;6.278;2024-03-02T08:07:34;15.30;84.30
51863;DHT22;37900;52.996;6.278;2024-03-02T08:10:00;15.30;84.20
51863;DHT22;37900;52.996;6.278;2024-03-02T08:12:26;15.30;84.30
51863;DHT22;37900;52.996;6.278;2024-03-02T08:14:51;15.30;84.30
51863;DHT22;37900;52.996;6.278;2024-03-02T08:17:17;18.40;86.60
51863;DHT22;37900;52.996;6.278;2024-03-02T08:19:42;15.30;83.80
51863;DHT22;37900;52.996;6.278;2024-03-02T08:22:09;15.20;83.70
51863;DHT22;37900;52.996;6.278;2024-03-02T08:24:35;15.30;84.30
51863;DHT22;37900;52.996;6.278;2024-03-02T08:27:01;15.20;84.20
51863;DHT22;37900;52.996;6.278;2024-03-02T08:29:26;15.30;83.80
51863;DHT22;37900;52.996;6.278;2024-03-02T08:31:52;15.30;84.30
51863;DHT22;37900;52.996;6.278;2024-03-02T08:34:18;15.30;84.30
51863;DHT22;37900;52.996;6.278;2024-03-02T08:36:43;15.30;84.30
51863;DHT22;37900;52.996;6.278;2024-03-02T08:39:09;15.30;83.80
51863;DHT22;37900;52.996;6.278;2024-03-02T08:41:44;15.30;83.80
51863;DHT22;37900;52.996;6.278;2024-03-02T08:44:10;15.30;84.30
51863;DHT22;37900;52.996;6.278;2024-03-02T08:46:36;15.30;84.30
51863;DHT22;37900;52.996;6.278;2024-03-02T08:49:01;15.30;84.40
51863;DHT22;37900;52.996;6.278;2024-03-02T08:51:27;15.20;84.40
51863;DHT22;37900;52.996;6.278;2024-03-02T08:53:53;15.30;84.50
51863;DHT22;37900;52.996;6.278;2024-03-02T08:56:18;14.90;84.30
51863;DHT22;37900;52.996;6.278;2024-03-02T08:58:45;15.30;84.00
51863;DHT22;37900;52.996;6.278;2024-03-02T09:01:11;15.40;84.50
51863;DHT22;37900;52.996;6.278;2024-03-02T09:03:37;15.30;84.40
51863;DHT22;37900;52.996;6.278;2024-03-02T09:06:03;15.30;83.90
51863;DHT22;37900;52.996;6.278;2024-03-02T09:08:28;15.30;84.30
51863;DHT22;37900;52.996;6.278;2024-03-02T09:10:54;15.30;83.90
51863;DHT22;37900;52.996;6.278;2024-03-02T09:13:21;15.30;84.40
51863;DHT22;37900;52.996;6.278;2024-03-02T09:15:47;15.30;84.40
51863;DHT22;37900;52.996;6.278;2024-03-02T09:18:13;15.30;84.40
51863;DHT22;37900;52.996;6.278;2024-03-02T09:20:39;15.30;83.90
51863;DHT22;37900;52.996;6.278;2024-03-02T09:23:04;15.30;83.90
51863;DHT22;37900;52.996;6.278;2024-03-02T09:25:30;15.30;84.40
51863;DHT22;37900;52.996;6.278;2024-03-02T09:27:55;15.30;84.40
51863;DHT22;37900;52.996;6.278;2024-03-02T09:30:22;15.30;84.40
51863;DHT22;37900;52.996;6.278;2024-03-02T09:32:47;15.30;84.40
51863;DHT22;37900;52.996;6.278;2024-03-02T09:35:13;15.30;83.90
51863;DHT22;37900;52.996;6.278;2024-03-02T09:37:38;15.30;84.50
51863;DHT22;37900;52.996;6.278;2024-03-02T09:40:04;15.30;84.40
51863;DHT22;37900;52.996;6.278;2024-03-02T09:42:31;15.30;84.40
51863;DHT22;37900;52.996;6.278;2024-03-02T09:44:57;15.30;84.40
51863;DHT22;37900;52.996;6.278;2024-03-02T09:47:23;15.30;83.90
51863;DHT22;37900;52.996;6.278;2024-03-02T09:49:49;15.30;84.50
51863;DHT22;37900;52.996;6.278;2024-03-02T09:52:18;15.30;84.50
51863;DHT22;37900;52.996;6.278;2024-03-02T09:54:43;15.30;83.90
51863;DHT22;37900;52.996;6.278;2024-03-02T09:57:09;15.30;84.40
51863;DHT22;37900;52.996;6.278;2024-03-02T09:59:35;15.30;84.40
51863;DHT22;37900;52.996;6.278;2024-03-02T10:02:01;15.30;83.80
51863;DHT22;37900;52.996;6.278;2024-03-02T10:04:27;15.40;84.40
51863;DHT22;37900;52.996;6.278;2024-03-02T10:07:09;15.30;84.30
51863;DHT22;37900;52.996;6.278;2024-03-02T10:09:36;15.30;84.30
51863;DHT22;37900;52.996;6.278;2024-03-02T10:12:05;15.30;83.80
51863;DHT22;37900;52.996;6.278;2024-03-02T10:14:31;15.40;84.40
51863;DHT22;37900;52.996;6.278;2024-03-02T10:19:29;15.30;84.40
51863;DHT22;37900;52.996;6.278;2024-03-02T10:21:58;15.30;83.80
51863;DHT22;37900;52.996;6.278;2024-03-02T10:24:24;15.30;84.40
51863;DHT22;37900;52.996;6.278;2024-03-02T10:26:50;15.30;83.90
51863;DHT22;37900;52.996;6.278;2024-03-02T10:29:16;15.40;84.40
51863;DHT22;37900;52.996;6.278;2024-03-02T10:31:45;15.30;84.30
51863;DHT22;37900;52.996;6.278;2024-03-02T10:34:11;15.40;84.40
51863;DHT22;37900;52.996;6.278;2024-03-02T10:36:39;15.40;84.40
51863;DHT22;37900;52.996;6.278;2024-03-02T10:39:06;15.30;84.30
51863;DHT22;37900;52.996;6.278;2024-03-02T10:41:35;15.30;84.30
51863;DHT22;37900;52.996;6.278;2024-03-02T10:44:05;15.30;84.40
51863;DHT22;37900;52.996;6.278;2024-03-02T10:46:31;15.40;83.90
51863;DHT22;37900;52.996;6.278;2024-03-02T10:48:58;15.40;83.90
51863;DHT22;37900;52.996;6.278;2024-03-02T10:51:26;15.40;84.40
51863;DHT22;37900;52.996;6.278;2024-03-02T10:53:54;15.30;84.30
51863;DHT22;37900;52.996;6.278;2024-03-02T10:56:33;15.40;84.30
51863;DHT22;37900;52.996;6.278;2024-03-02T11:01:46;15.30;84.40
51863;DHT22;37900;52.996;6.278;2024-03-02T11:04:12;15.40;84.40
51863;DHT22;37900;52.996;6.278;2024-03-02T11:06:38;15.40;84.40
51863;DHT22;37900;52.996;6.278;2024-03-02T11:09:07;15.40;84.40
51863;DHT22;37900;52.996;6.278;2024-03-02T11:11:39;15.40;84.40
51863;DHT22;37900;52.996;6.278;2024-03-02T11:14:07;15.40;84.30
51863;DHT22;37900;52.996;6.278;2024-03-02T11:16:37;15.30;84.30
51863;DHT22;37900;52.996;6.278;2024-03-02T11:19:04;18.30;85.90
51863;DHT22;37900;52.996;6.278;2024-03-02T11:21:31;15.40;84.40
51863;DHT22;37900;52.996;6.278;2024-03-02T11:23:58;15.40;84.40
51863;DHT22;37900;52.996;6.278;2024-03-02T11:26:23;15.40;84.40
51863;DHT22;37900;52.996;6.278;2024-03-02T11:28:50;15.40;84.50
51863;DHT22;37900;52.996;6.278;2024-03-02T11:31:15;11.40;82.40
51863;DHT22;37900;52.996;6.278;2024-03-02T11:33:41;15.40;84.50
51863;DHT22;37900;52.996;6.278;2024-03-02T11:36:07;15.40;84.50
51863;DHT22;37900;52.996;6.278;2024-03-02T11:38:33;15.40;84.50
51863;DHT22;37900;52.996;6.278;2024-03-02T11:41:03;15.40;84.10
51863;DHT22;37900;52.996;6.278;2024-03-02T11:43:31;15.40;84.10
51863;DHT22;37900;52.996;6.278;2024-03-02T11:45:59;15.40;84.60
51863;DHT22;37900;52.996;6.278;2024-03-02T11:48:25;15.40;84.70
51863;DHT22;37900;52.996;6.278;2024-03-02T11:50:50;15.40;84.80
51863;DHT22;37900;52.996;6.278;2024-03-02T11:53:17;15.40;84.10
51863;DHT22;37900;52.996;6.278;2024-03-02T11:55:43;15.40;84.70
51863;DHT22;37900;52.996;6.278;2024-03-02T11:58:12;15.40;84.20
51863;DHT22;37900;52.996;6.278;2024-03-02T12:00:38;15.40;84.80
51863;DHT22;37900;52.996;6.278;2024-03-02T12:03:04;15.40;84.80
51863;DHT22;37900;52.996;6.278;2024-03-02T12:05:30;15.40;84.80
51863;DHT22;37900;52.996;6.278;2024-03-02T12:07:59;15.40;84.80
51863;DHT22;37900;52.996;6.278;2024-03-02T12:10:25;15.50;84.80
51863;DHT22;37900;52.996;6.278;2024-03-02T12:13:07;15.40;84.80
51863;DHT22;37900;52.996;6.278;2024-03-02T12:15:33;15.50;84.80
51863;DHT22;37900;52.996;6.278;2024-03-02T12:18:00;15.50;84.80
51863;DHT22;37900;52.996;6.278;2024-03-02T12:20:26;15.40;84.80
51863;DHT22;37900;52.996;6.278;2024-03-02T12:22:53;15.50;84.90
51863;DHT22;37900;52.996;6.278;2024-03-02T12:25:22;15.50;84.90
51863;DHT22;37900;52.996;6.278;2024-03-02T12:27:49;15.50;84.50
51863;DHT22;37900;52.996;6.278;2024-03-02T12:30:16;15.50;85.00
51863;DHT22;37900;52.996;6.278;2024-03-02T12:32:41;15.50;85.00
51863;DHT22;37900;52.996;6.278;2024-03-02T12:35:07;15.50;84.50
51863;DHT22;37900;52.996;6.278;2024-03-02T12:37:33;15.50;85.00
51863;DHT22;37900;52.996;6.278;2024-03-02T12:39:59;15.50;85.00
51863;DHT22;37900;52.996;6.278;2024-03-02T12:42:24;15.50;85.10
51863;DHT22;37900;52.996;6.278;2024-03-02T12:44:53;15.50;85.20
51863;DHT22;37900;52.996;6.278;2024-03-02T12:47:22;15.50;84.60
51863;DHT22;37900;52.996;6.278;2024-03-02T12:49:48;15.50;85.20
51863;DHT22;37900;52.996;6.278;2024-03-02T12:52:14;15.50;85.20
51863;DHT22;37900;52.996;6.278;2024-03-02T12:54:39;15.50;85.20
51863;DHT22;37900;52.996;6.278;2024-03-02T12:57:05;15.50;85.20
51863;DHT22;37900;52.996;6.278;2024-03-02T12:59:31;15.50;85.20
51863;DHT22;37900;52.996;6.278;2024-03-02T13:01:56;15.50;85.20
51863;DHT22;37900;52.996;6.278;2024-03-02T13:04:27;15.50;85.20
51863;DHT22;37900;52.996;6.278;2024-03-02T13:06:54;15.50;85.30
51863;DHT22;37900;52.996;6.278;2024-03-02T13:09:21;15.60;85.40
51863;DHT22;37900;52.996;6.278;2024-03-02T13:11:46;15.50;85.30
51863;DHT22;37900;52.996;6.278;2024-03-02T13:14:12;15.50;84.80
51863;DHT22;37900;52.996;6.278;2024-03-02T13:16:38;15.50;85.50
51863;DHT22;37900;52.996;6.278;2024-03-02T13:19:07;15.60;85.40
51863;DHT22;37900;52.996;6.278;2024-03-02T13:21:33;15.50;85.40
51863;DHT22;37900;52.996;6.278;2024-03-02T13:23:59;15.50;85.40
51863;DHT22;37900;52.996;6.278;2024-03-02T13:26:25;15.60;85.50
51863;DHT22;37900;52.996;6.278;2024-03-02T13:28:51;15.60;85.50
51863;DHT22;37900;52.996;6.278;2024-03-02T13:31:16;15.60;85.50
51863;DHT22;37900;52.996;6.278;2024-03-02T13:33:42;15.60;85.60
51863;DHT22;37900;52.996;6.278;2024-03-02T13:36:08;15.60;85.60
51863;DHT22;37900;52.996;6.278;2024-03-02T13:38:33;15.60;85.50
51863;DHT22;37900;52.996;6.278;2024-03-02T13:40:59;15.60;85.60
51863;DHT22;37900;52.996;6.278;2024-03-02T13:43:26;15.60;85.60
51863;DHT22;37900;52.996;6.278;2024-03-02T13:45:52;15.60;85.50
51863;DHT22;37900;52.996;6.278;2024-03-02T13:48:19;15.60;85.60
51863;DHT22;37900;52.996;6.278;2024-03-02T13:50:44;15.60;86.10
51863;DHT22;37900;52.996;6.278;2024-03-02T13:53:11;15.60;85.60
51863;DHT22;37900;52.996;6.278;2024-03-02T13:55:37;15.60;85.50
51863;DHT22;37900;52.996;6.278;2024-03-02T13:58:04;15.60;85.50
51863;DHT22;37900;52.996;6.278;2024-03-02T14:00:30;15.60;85.60
51863;DHT22;37900;52.996;6.278;2024-03-02T14:02:56;15.60;85.50
51863;DHT22;37900;52.996;6.278;2024-03-02T14:05:21;15.60;85.50
51863;DHT22;37900;52.996;6.278;2024-03-02T14:07:47;15.60;85.50
51863;DHT22;37900;52.996;6.278;2024-03-02T14:10:12;15.60;85.50
51863;DHT22;37900;52.996;6.278;2024-03-02T14:12:40;15.60;85.40
51863;DHT22;37900;52.996;6.278;2024-03-02T14:15:06;15.60;85.40
51863;DHT22;37900;52.996;6.278;2024-03-02T14:17:32;15.60;85.40
51863;DHT22;37900;52.996;6.278;2024-03-02T14:19:58;17.00;86.10
51863;DHT22;37900;52.996;6.278;2024-03-02T14:22:26;15.60;85.40
51863;DHT22;37900;52.996;6.278;2024-03-02T14:24:52;15.60;85.40
51863;DHT22;37900;52.996;6.278;2024-03-02T14:27:18;15.60;85.30
51863;DHT22;37900;52.996;6.278;2024-03-02T14:29:44;15.60;85.30
51863;DHT22;37900;52.996;6.278;2024-03-02T14:32:10;15.60;84.70
51863;DHT22;37900;52.996;6.278;2024-03-02T14:34:35;15.60;85.30
51863;DHT22;37900;52.996;6.278;2024-03-02T14:37:01;15.60;85.20
51863;DHT22;37900;52.996;6.278;2024-03-02T14:39:26;15.60;85.20
51863;DHT22;37900;52.996;6.278;2024-03-02T14:41:52;15.60;85.20
51863;DHT22;37900;52.996;6.278;2024-03-02T14:44:18;15.60;85.10
51863;DHT22;37900;52.996;6.278;2024-03-02T14:46:48;15.60;85.10
51863;DHT22;37900;52.996;6.278;2024-03-02T14:49:14;15.60;85.10
51863;DHT22;37900;52.996;6.278;2024-03-02T14:51:40;15.60;85.00
51863;DHT22;37900;52.996;6.278;2024-03-02T14:54:06;15.60;85.00
51863;DHT22;37900;52.996;6.278;2024-03-02T14:56:32;15.60;85.10
51863;DHT22;37900;52.996;6.278;2024-03-02T14:58:57;15.60;85.00
51863;DHT22;37900;52.996;6.278;2024-03-02T15:01:23;15.60;85.00
51863;DHT22;37900;52.996;6.278;2024-03-02T15:03:50;15.60;85.00
51863;DHT22;37900;52.996;6.278;2024-03-02T15:06:15;15.60;85.10
51863;DHT22;37900;52.996;6.278;2024-03-02T15:08:41;15.60;85.00
51863;DHT22;37900;52.996;6.278;2024-03-02T15:11:07;15.60;85.00
51863;DHT22;37900;52.996;6.278;2024-03-02T15:13:33;15.60;85.00
51863;DHT22;37900;52.996;6.278;2024-03-02T15:15:59;15.60;85.00
51863;DHT22;37900;52.996;6.278;2024-03-02T15:18:25;15.60;85.20
51863;DHT22;37900;52.996;6.278;2024-03-02T15:20:50;15.60;85.00
51863;DHT22;37900;52.996;6.278;2024-03-02T15:23:16;15.60;84.90
51863;DHT22;37900;52.996;6.278;2024-03-02T15:25:42;12.20;83.20
51863;DHT22;37900;52.996;6.278;2024-03-02T15:28:07;15.60;85.00
51863;DHT22;37900;52.996;6.278;2024-03-02T15:30:33;15.60;84.90
51863;DHT22;37900;52.996;6.278;2024-03-02T15:32:59;15.60;84.90